createdAt,value
2023-01-15T00:02:07.566Z,0.29
2023-01-15T00:04:34.482Z,0.34
2023-01-15T00:07:01.410Z,0.39
2023-01-15T00:09:28.323Z,0.43
2023-01-15T00:11:55.383Z,0.43
2023-01-15T00:14:22.513Z,0.39
2023-01-15T00:16:52.809Z,0.25
2023-01-15T00:19:20.275Z,0.38
2023-01-15T00:21:47.167Z,0.33
2023-01-15T00:24:32.556Z,0.46
2023-01-15T00:27:17.686Z,0.33
2023-01-15T00:29:46.826Z,0.24
2023-01-15T00:32:13.935Z,0.23
2023-01-15T00:34:40.926Z,0.25
2023-01-15T00:37:07.846Z,0.41
2023-01-15T00:39:35.668Z,0.46
2023-01-15T00:42:03.147Z,0.34
2023-01-15T00:44:33.850Z,0.24
2023-01-15T00:47:00.856Z,0.18
2023-01-15T00:49:27.876Z,0.31
2023-01-15T00:51:54.984Z,0.44
2023-01-15T00:54:22.115Z,0.45
2023-01-15T00:56:49.001Z,0.38
2023-01-15T00:59:16.166Z,0.27
2023-01-15T01:01:43.824Z,0.25
2023-01-15T01:04:10.786Z,0.30
2023-01-15T01:06:37.821Z,0.42
2023-01-15T01:09:04.921Z,0.52
2023-01-15T01:11:34.638Z,0.36
2023-01-15T01:14:02.903Z,0.30
2023-01-15T01:16:37.819Z,0.21
2023-01-15T01:19:09.443Z,0.28
2023-01-15T01:21:39.198Z,0.31
2023-01-15T01:24:06.905Z,0.45
2023-01-15T01:26:34.643Z,0.22
2023-01-15T01:29:01.919Z,0.19
2023-01-15T01:31:28.971Z,0.16
2023-01-15T01:33:58.378Z,0.19
2023-01-15T01:36:34.193Z,0.22
2023-01-15T01:39:02.285Z,0.20
2023-01-15T01:41:29.548Z,0.18
2023-01-15T01:44:05.960Z,0.21
2023-01-15T01:46:35.977Z,0.16
2023-01-15T01:49:13.163Z,0.19
2023-01-15T01:52:04.179Z,0.34
2023-01-15T01:54:34.042Z,0.37
2023-01-15T01:57:01.184Z,0.39
2023-01-15T01:59:28.420Z,0.33
2023-01-15T02:01:55.833Z,0.17
2023-01-15T02:04:27.463Z,0.17
2023-01-15T02:06:54.661Z,0.21
2023-01-15T02:09:21.571Z,0.19
2023-01-15T02:11:55.831Z,0.10
2023-01-15T02:14:28.396Z,0.08
2023-01-15T02:17:23.710Z,0.13
2023-01-15T02:20:12.978Z,0.28
2023-01-15T02:22:55.143Z,0.17
2023-01-15T02:25:28.777Z,0.15
2023-01-15T02:28:04.108Z,0.20
2023-01-15T02:30:40.163Z,0.20
2023-01-15T02:33:13.037Z,0.28
2023-01-15T02:35:48.468Z,0.41
2023-01-15T02:38:19.654Z,0.37
2023-01-15T02:40:54.195Z,0.29
2023-01-15T02:43:24.949Z,0.14
2023-01-15T02:45:55.282Z,0.10
2023-01-15T02:48:26.860Z,0.04
2023-01-15T02:51:07.207Z,0.19
2023-01-15T02:53:36.179Z,0.25
2023-01-15T02:56:09.868Z,0.23
2023-01-15T02:58:46.807Z,0.18
2023-01-15T03:01:19.569Z,0.16
2023-01-15T03:04:02.278Z,0.31
2023-01-15T03:06:43.981Z,0.40
2023-01-15T03:09:12.300Z,0.40
2023-01-15T03:11:45.230Z,0.32
2023-01-15T03:14:22.087Z,0.25
2023-01-15T03:17:00.560Z,0.26
2023-01-15T03:19:33.675Z,0.41
2023-01-15T03:22:17.927Z,0.39
2023-01-15T03:24:54.905Z,0.54
2023-01-15T03:27:22.486Z,0.40
2023-01-15T03:29:59.551Z,0.36
2023-01-15T03:32:28.916Z,0.37
2023-01-15T03:34:56.978Z,0.59
2023-01-15T03:37:27.479Z,0.68
2023-01-15T03:39:56.949Z,0.74
2023-01-15T03:42:25.648Z,0.61
2023-01-15T03:45:15.558Z,0.71
2023-01-15T03:48:09.631Z,0.52
2023-01-15T03:51:00.752Z,0.69
2023-01-15T03:53:37.549Z,0.99
2023-01-15T03:56:19.599Z,0.81
2023-01-15T03:58:52.907Z,1.00
2023-01-15T04:01:32.484Z,1.61
2023-01-15T04:04:02.467Z,1.71
2023-01-15T04:06:32.320Z,1.61
2023-01-15T04:09:00.602Z,1.26
2023-01-15T04:11:30.793Z,1.73
2023-01-15T04:14:04.945Z,1.82
2023-01-15T04:16:38.796Z,1.74
2023-01-15T04:19:07.003Z,2.11
2023-01-15T04:21:37.162Z,2.34
2023-01-15T04:24:04.252Z,2.34
2023-01-15T04:26:31.214Z,2.35
2023-01-15T04:28:58.100Z,2.32
2023-01-15T04:31:25.192Z,1.79
2023-01-15T04:33:52.061Z,1.62
2023-01-15T04:36:19.095Z,1.49
2023-01-15T04:38:45.965Z,1.60
2023-01-15T04:41:31.320Z,1.08
2023-01-15T04:44:07.294Z,0.79
2023-01-15T04:46:42.493Z,0.79
2023-01-15T04:49:16.004Z,0.86
2023-01-15T04:51:43.929Z,0.86
2023-01-15T04:54:12.996Z,0.92
2023-01-15T04:56:45.164Z,0.70
2023-01-15T04:59:13.262Z,0.65
2023-01-15T05:01:42.879Z,0.60
2023-01-15T05:04:13.570Z,0.74
2023-01-15T05:06:40.509Z,0.51
2023-01-15T05:09:07.662Z,0.43
2023-01-15T05:11:38.625Z,0.38
2023-01-15T05:14:06.399Z,0.39
2023-01-15T05:16:35.141Z,0.31
2023-01-15T05:19:04.248Z,0.28
2023-01-15T05:21:34.698Z,0.31
2023-01-15T05:24:04.517Z,0.52
2023-01-15T05:26:32.982Z,0.32
2023-01-15T05:29:01.154Z,0.26
2023-01-15T05:31:29.500Z,0.18
2023-01-15T05:33:56.794Z,0.21
2023-01-15T05:36:26.421Z,0.30
2023-01-15T05:38:58.365Z,0.21
2023-01-15T05:41:43.885Z,0.09
2023-01-15T05:44:12.918Z,-0.07
2023-01-15T05:46:41.827Z,-0.17
2023-01-15T05:49:13.893Z,-0.24
2023-01-15T05:51:41.663Z,-0.24
2023-01-15T05:54:12.846Z,-0.21
2023-01-15T05:56:40.357Z,-0.23
2023-01-15T05:59:08.063Z,-0.31
2023-01-15T06:01:36.193Z,-0.29
2023-01-15T06:04:05.424Z,-0.35
2023-01-15T06:06:33.676Z,-0.36
2023-01-15T06:09:00.579Z,-0.46
2023-01-15T06:11:27.567Z,-0.48
2023-01-15T06:13:54.538Z,-0.42
2023-01-15T06:16:21.758Z,-0.47
2023-01-15T06:18:49.067Z,-0.39
2023-01-15T06:21:16.553Z,-0.34
2023-01-15T06:23:44.147Z,-0.30
2023-01-15T06:26:14.721Z,-0.24
2023-01-15T06:28:42.095Z,-0.23
2023-01-15T06:31:11.520Z,-0.20
2023-01-15T06:33:39.087Z,-0.21
2023-01-15T06:36:17.248Z,-0.27
2023-01-15T06:38:45.127Z,-0.28
2023-01-15T06:41:39.326Z,-0.14
2023-01-15T06:44:26.658Z,-0.08
2023-01-15T06:47:13.602Z,-0.09
2023-01-15T06:49:40.468Z,-0.08
2023-01-15T06:52:07.540Z,0.04
2023-01-15T06:54:35.306Z,0.02
2023-01-15T06:57:02.527Z,0.04
2023-01-15T06:59:29.614Z,0.09
2023-01-15T07:01:56.666Z,0.03
2023-01-15T07:04:23.736Z,0.10
2023-01-15T07:06:50.718Z,0.16
2023-01-15T07:09:17.656Z,0.21
2023-01-15T07:11:50.379Z,0.26
2023-01-15T07:14:19.520Z,0.38
2023-01-15T07:16:47.836Z,0.47
2023-01-15T07:19:15.752Z,0.48
2023-01-15T07:21:43.057Z,0.58
2023-01-15T07:24:11.513Z,0.71
2023-01-15T07:26:38.842Z,0.73
2023-01-15T07:29:05.924Z,0.83
2023-01-15T07:31:33.243Z,0.95
2023-01-15T07:34:00.373Z,1.09
2023-01-15T07:36:27.617Z,1.09
2023-01-15T07:38:54.983Z,1.07
2023-01-15T07:41:40.497Z,1.19
2023-01-15T07:44:30.618Z,1.42
2023-01-15T07:47:16.302Z,1.64
2023-01-15T07:49:47.432Z,1.55
2023-01-15T07:52:19.893Z,1.58
2023-01-15T07:54:48.579Z,1.69
2023-01-15T07:57:19.252Z,2.24
2023-01-15T07:59:46.321Z,2.48
2023-01-15T08:02:13.502Z,2.61
2023-01-15T08:04:40.615Z,2.48
2023-01-15T08:07:08.633Z,2.26
2023-01-15T08:09:36.121Z,2.29
2023-01-15T08:12:22.513Z,2.06
2023-01-15T08:15:08.209Z,2.16
2023-01-15T08:17:37.243Z,2.39
2023-01-15T08:20:06.225Z,2.80
2023-01-15T08:22:33.584Z,2.74
2023-01-15T08:25:00.652Z,2.35
2023-01-15T08:27:29.092Z,2.48
2023-01-15T08:29:56.931Z,2.51
2023-01-15T08:32:25.448Z,2.62
2023-01-15T08:34:52.551Z,2.73
2023-01-15T08:37:19.506Z,2.68
2023-01-15T08:39:46.401Z,2.59
2023-01-15T08:42:13.389Z,2.71
2023-01-15T08:44:40.391Z,2.74
2023-01-15T08:47:07.403Z,2.99
2023-01-15T08:49:34.367Z,3.28
2023-01-15T08:52:01.351Z,3.37
2023-01-15T08:54:28.336Z,3.43
2023-01-15T08:56:55.481Z,3.17
2023-01-15T08:59:22.836Z,3.21
2023-01-15T09:01:49.894Z,3.70
2023-01-15T09:04:19.102Z,4.15
2023-01-15T09:06:47.283Z,4.29
2023-01-15T09:09:14.668Z,3.65
2023-01-15T09:11:42.584Z,3.53
2023-01-15T09:14:56.905Z,3.33
2023-01-15T09:16:59.087Z,3.12
2023-01-15T09:19:26.111Z,3.28
2023-01-15T09:21:53.106Z,3.93
2023-01-15T09:24:19.978Z,3.76
2023-01-15T09:26:47.717Z,3.66
2023-01-15T09:29:15.176Z,3.74
2023-01-15T09:31:42.100Z,3.58
2023-01-15T09:34:09.067Z,3.72
2023-01-15T09:36:36.245Z,3.79
2023-01-15T09:39:04.827Z,3.83
2023-01-15T09:42:09.934Z,3.50
2023-01-15T09:44:39.650Z,3.41
2023-01-15T10:18:22.924Z,3.58
2023-01-15T10:21:08.539Z,3.85
2023-01-15T10:24:02.822Z,4.12
2023-01-15T10:26:44.820Z,4.71
2023-01-15T10:29:55.985Z,4.95
2023-01-15T10:33:03.623Z,5.01
2023-01-15T10:36:06.394Z,4.85
2023-01-15T10:39:01.299Z,5.10
2023-01-15T10:41:47.171Z,5.18
2023-01-15T10:44:16.922Z,5.11
2023-01-15T10:46:54.683Z,5.16
2023-01-15T10:49:22.457Z,5.20
2023-01-15T10:52:01.048Z,5.10
2023-01-15T10:54:54.693Z,5.24
2023-01-15T10:57:36.088Z,5.24
2023-01-15T11:00:04.543Z,5.65
2023-01-15T11:02:44.501Z,5.48
2023-01-15T11:05:22.518Z,5.43
2023-01-15T11:08:15.279Z,5.70
2023-01-15T11:10:41.492Z,5.39
2023-01-15T11:13:44.738Z,5.61
2023-01-15T11:16:28.215Z,5.67
2023-01-15T11:19:13.887Z,5.62
2023-01-15T11:21:43.211Z,5.67
2023-01-15T11:24:16.733Z,5.46
2023-01-15T11:26:49.197Z,5.65
2023-01-15T11:29:27.026Z,5.67
2023-01-15T11:31:54.077Z,5.57
2023-01-15T11:34:22.244Z,5.49
2023-01-15T11:36:49.682Z,5.38
2023-01-15T11:39:28.465Z,5.31
2023-01-15T11:42:22.248Z,5.15
2023-01-15T11:45:16.288Z,4.89
2023-01-15T11:48:14.422Z,4.95
2023-01-15T11:50:52.239Z,5.14
2023-01-15T11:53:28.026Z,5.52
2023-01-15T11:56:01.159Z,5.27
2023-01-15T11:58:32.325Z,5.28
2023-01-15T12:01:00.091Z,5.29
2023-01-15T12:03:31.633Z,5.20
2023-01-15T12:06:09.447Z,5.16
2023-01-15T12:08:51.866Z,5.37
2023-01-15T12:11:27.015Z,5.42
2023-01-15T12:14:05.275Z,5.13
2023-01-15T12:16:46.325Z,5.18
2023-01-15T12:19:27.266Z,5.00
2023-01-15T12:22:02.235Z,4.83
2023-01-15T12:24:39.081Z,4.89
2023-01-15T12:27:24.969Z,5.27
2023-01-15T12:29:58.925Z,5.41
2023-01-15T12:32:41.859Z,4.93
2023-01-15T12:35:20.649Z,5.26
2023-01-15T12:37:56.415Z,4.89
2023-01-15T12:40:40.665Z,5.00
2023-01-15T12:43:34.506Z,5.08
2023-01-15T12:46:05.142Z,5.25
2023-01-15T12:48:51.383Z,5.29
2023-01-15T12:51:28.391Z,5.18
2023-01-15T12:54:04.525Z,5.24
2023-01-15T12:56:56.634Z,4.95
2023-01-15T12:59:32.565Z,4.96
2023-01-15T13:02:20.398Z,5.11
2023-01-15T13:05:05.152Z,5.21
2023-01-15T13:07:40.239Z,5.28
2023-01-15T13:10:12.819Z,5.01
2023-01-15T13:12:40.146Z,4.86
2023-01-15T13:15:07.842Z,4.93
2023-01-15T13:17:55.690Z,5.18
2023-01-15T13:20:33.889Z,4.90
2023-01-15T13:23:23.771Z,5.10
2023-01-15T13:25:50.633Z,4.77
2023-01-15T13:28:17.515Z,4.96
2023-01-15T13:30:56.181Z,4.98
2023-01-15T13:33:32.534Z,4.92
2023-01-15T13:36:20.577Z,4.94
2023-01-15T13:38:52.220Z,4.86
2023-01-15T13:42:07.217Z,4.93
2023-01-15T13:44:39.346Z,4.67
2023-01-15T13:47:13.320Z,4.91
2023-01-15T13:49:56.316Z,4.88
2023-01-15T13:52:28.689Z,4.99
2023-01-15T13:55:01.182Z,4.83
2023-01-15T13:57:36.996Z,4.91
2023-01-15T14:00:26.325Z,5.01
2023-01-15T14:02:56.452Z,5.08
2023-01-15T14:05:26.971Z,5.04
2023-01-15T14:07:54.641Z,5.12
2023-01-15T14:10:26.125Z,5.12
2023-01-15T14:12:58.965Z,5.14
2023-01-15T14:15:36.290Z,5.04
2023-01-15T14:18:08.827Z,4.94
2023-01-15T14:23:31.283Z,4.92
2023-01-15T14:26:37.712Z,4.83
2023-01-15T14:29:04.824Z,4.84
2023-01-15T14:31:40.819Z,4.77
2023-01-15T14:37:00.092Z,4.75
2023-01-15T14:39:48.846Z,4.83
2023-01-15T14:42:40.139Z,4.83
2023-01-15T14:45:12.992Z,4.33
2023-01-15T14:47:48.588Z,4.48
2023-01-15T14:50:40.432Z,4.31
2023-01-15T14:53:16.347Z,4.24
2023-01-15T14:56:13.095Z,4.39
2023-01-15T14:59:25.921Z,4.37
2023-01-15T15:01:58.845Z,4.31
2023-01-15T15:04:34.793Z,4.42
2023-01-15T15:07:07.541Z,4.28
2023-01-15T15:09:43.659Z,4.22
2023-01-15T15:12:21.652Z,4.22
2023-01-15T15:15:15.635Z,4.43
2023-01-15T15:18:13.317Z,4.34
2023-01-15T15:21:05.583Z,4.37
2023-01-15T15:24:03.718Z,4.41
2023-01-15T15:26:33.378Z,4.21
2023-01-15T15:29:00.317Z,4.30
2023-01-15T15:31:28.737Z,4.27
2023-01-15T15:33:56.943Z,4.31
2023-01-15T15:36:28.128Z,4.28
2023-01-15T15:38:58.234Z,3.91
2023-01-15T15:41:48.307Z,3.93
2023-01-15T15:45:01.815Z,3.90
2023-01-15T15:47:47.391Z,4.09
2023-01-15T15:50:25.248Z,3.94
2023-01-15T15:52:52.559Z,3.97
2023-01-15T15:55:21.894Z,3.84
2023-01-15T15:57:54.629Z,3.90
2023-01-15T16:00:34.889Z,3.91
2023-01-15T16:03:07.877Z,4.20
2023-01-15T16:05:35.016Z,4.18
2023-01-15T16:08:17.963Z,4.13
2023-01-15T16:10:50.852Z,4.06
2023-01-15T16:13:45.995Z,4.18
2023-01-15T16:16:15.465Z,3.93
2023-01-15T16:19:03.338Z,3.92
2023-01-15T16:21:35.568Z,3.94
2023-01-15T16:24:08.016Z,3.88
2023-01-15T16:26:44.559Z,3.87
2023-01-15T16:29:19.717Z,3.90
2023-01-15T16:31:48.691Z,3.92
2023-01-15T16:34:25.245Z,4.15
2023-01-15T16:36:52.150Z,3.96
2023-01-15T16:39:37.933Z,3.95
2023-01-15T16:42:05.132Z,4.18
2023-01-15T16:44:46.867Z,3.98
2023-01-15T16:47:26.444Z,4.28
2023-01-15T16:49:53.781Z,4.37
2023-01-15T16:52:49.023Z,4.01
2023-01-15T16:55:34.426Z,3.81
2023-01-15T16:58:13.510Z,4.04
2023-01-15T17:00:43.462Z,3.93
2023-01-15T17:03:31.939Z,3.91
2023-01-15T17:06:12.080Z,3.96
2023-01-15T17:08:39.884Z,3.93
2023-01-15T17:11:18.828Z,3.84
2023-01-15T17:13:45.748Z,3.65
2023-01-15T17:16:19.977Z,3.67
2023-01-15T17:18:49.150Z,3.79
2023-01-15T17:21:18.886Z,3.71
2023-01-15T17:23:46.633Z,3.73
2023-01-15T17:26:22.830Z,3.79
2023-01-15T17:28:50.398Z,3.91
2023-01-15T17:31:23.951Z,3.85
2023-01-15T17:33:51.483Z,3.79
2023-01-15T17:36:19.253Z,4.01
2023-01-15T17:38:46.574Z,3.77
2023-01-15T17:41:15.346Z,3.94
2023-01-15T17:43:42.776Z,3.99
2023-01-15T17:46:10.071Z,4.03
2023-01-15T17:48:37.375Z,4.22
2023-01-15T17:51:07.167Z,4.14
2023-01-15T17:53:36.216Z,4.15
2023-01-15T17:56:22.596Z,4.08
2023-01-15T17:59:09.191Z,4.09
2023-01-15T18:02:01.671Z,4.33
2023-01-15T18:05:16.769Z,4.35
2023-01-15T18:07:45.624Z,4.27
2023-01-15T18:10:19.226Z,4.30
2023-01-15T18:12:46.751Z,4.39
2023-01-15T18:15:13.976Z,4.44
2023-01-15T18:17:40.957Z,4.54
2023-01-15T18:20:08.917Z,4.36
2023-01-15T18:22:36.099Z,4.21
2023-01-15T18:25:03.127Z,4.18
2023-01-15T18:27:30.436Z,4.28
2023-01-15T18:29:59.408Z,4.32
2023-01-15T18:32:30.750Z,4.34
2023-01-15T18:34:57.658Z,4.37
2023-01-15T18:37:25.115Z,4.27
2023-01-15T18:39:52.178Z,4.09
2023-01-15T18:42:37.699Z,4.32
2023-01-15T18:45:23.488Z,4.24
2023-01-15T18:47:50.451Z,4.20
2023-01-15T18:50:17.672Z,4.30
2023-01-15T18:52:51.482Z,4.26
2023-01-15T18:55:27.482Z,4.07
2023-01-15T18:57:55.621Z,4.12
2023-01-15T19:00:24.265Z,4.21
2023-01-15T19:02:52.064Z,4.01
2023-01-15T19:05:19.143Z,4.25
2023-01-15T19:07:47.198Z,4.12
2023-01-15T19:10:16.058Z,4.02
2023-01-15T19:12:44.798Z,4.17
2023-01-15T19:15:36.244Z,4.08
2023-01-15T19:18:24.695Z,4.20
2023-01-15T19:20:51.888Z,4.21
2023-01-15T19:23:20.659Z,4.17
2023-01-15T19:25:51.073Z,4.06
2023-01-15T19:28:20.620Z,4.13
2023-01-15T19:31:07.067Z,4.30
2023-01-15T19:33:35.172Z,4.33
2023-01-15T19:36:02.733Z,4.31
2023-01-15T19:38:30.184Z,4.28
2023-01-15T19:41:17.026Z,4.32
2023-01-15T19:44:02.582Z,4.22
2023-01-15T19:46:48.715Z,4.15
2023-01-15T19:49:39.002Z,4.29
2023-01-15T19:52:24.741Z,4.11
2023-01-15T19:54:57.867Z,4.04
2023-01-15T19:57:25.028Z,3.91
2023-01-15T19:59:52.128Z,4.11
2023-01-15T20:02:19.133Z,4.29
2023-01-15T20:04:46.637Z,4.22
2023-01-15T20:07:13.971Z,4.18
2023-01-15T20:09:42.154Z,4.03
2023-01-15T20:12:32.639Z,4.19
2023-01-15T20:15:00.258Z,4.13
2023-01-15T20:17:30.649Z,4.30
2023-01-15T20:19:58.616Z,4.32
2023-01-15T20:22:26.969Z,3.98
2023-01-15T20:24:54.173Z,3.91
2023-01-15T20:27:21.683Z,4.09
2023-01-15T20:30:09.459Z,4.31
2023-01-15T20:32:38.061Z,4.36
2023-01-15T20:35:11.313Z,4.36
2023-01-15T20:37:39.260Z,4.17
2023-01-15T20:40:07.645Z,4.22
2023-01-15T20:42:54.073Z,4.33
2023-01-15T20:45:21.245Z,4.51
2023-01-15T20:48:06.578Z,4.45
2023-01-15T20:50:36.445Z,4.25
2023-01-15T20:53:05.139Z,4.19
2023-01-15T20:55:42.314Z,4.32
2023-01-15T20:58:21.950Z,4.27
2023-01-15T21:00:48.890Z,4.39
2023-01-15T21:03:16.073Z,4.43
2023-01-15T21:05:43.087Z,4.15
2023-01-15T21:08:10.197Z,4.19
2023-01-15T21:10:37.071Z,4.16
2023-01-15T21:13:04.882Z,4.31
2023-01-15T21:15:31.841Z,4.42
2023-01-15T21:17:58.762Z,4.41
2023-01-15T21:20:25.766Z,4.31
2023-01-15T21:22:52.699Z,4.07
2023-01-15T21:25:19.880Z,4.15
2023-01-15T21:27:46.814Z,4.32
2023-01-15T21:30:14.115Z,4.40
2023-01-15T21:32:41.174Z,4.42
2023-01-15T21:35:08.252Z,4.25
2023-01-15T21:37:35.208Z,4.32
2023-01-15T21:40:02.216Z,4.22
2023-01-15T21:42:47.456Z,4.35
2023-01-15T21:45:14.621Z,4.49
2023-01-15T21:47:41.704Z,4.50
2023-01-15T21:50:09.457Z,4.27
2023-01-15T21:52:36.388Z,4.29
2023-01-15T21:55:03.454Z,4.27
2023-01-15T21:57:31.181Z,4.47
2023-01-15T21:59:58.114Z,4.42
2023-01-15T22:02:25.180Z,4.34
2023-01-15T22:04:52.096Z,4.21
2023-01-15T22:07:19.290Z,4.17
2023-01-15T22:09:46.373Z,4.34
2023-01-15T22:12:14.016Z,4.52
2023-01-15T22:14:41.183Z,4.57
2023-01-15T22:17:08.222Z,4.52
2023-01-15T22:19:35.263Z,4.43
2023-01-15T22:22:08.882Z,4.42
2023-01-15T22:24:38.311Z,4.31
2023-01-15T22:27:06.637Z,4.60
2023-01-15T22:29:38.730Z,4.57
2023-01-15T22:32:07.186Z,4.40
2023-01-15T22:34:34.175Z,4.48
2023-01-15T22:37:01.077Z,4.52
2023-01-15T22:39:29.343Z,4.77
2023-01-15T22:42:14.953Z,4.74
2023-01-15T22:44:44.262Z,4.69
2023-01-15T22:47:12.201Z,4.58
2023-01-15T22:49:39.227Z,4.60
2023-01-15T22:52:06.414Z,4.70
2023-01-15T22:54:33.526Z,4.91
2023-01-15T22:57:00.549Z,4.70
2023-01-15T22:59:27.483Z,4.62
2023-01-15T23:01:54.453Z,4.63
2023-01-15T23:04:25.476Z,4.60
2023-01-15T23:06:53.467Z,4.69
2023-01-15T23:09:22.216Z,4.72
2023-01-15T23:11:51.560Z,4.68
2023-01-15T23:14:20.287Z,4.60
2023-01-15T23:16:47.601Z,4.59
2023-01-15T23:19:14.767Z,4.63
2023-01-15T23:21:42.273Z,4.84
2023-01-15T23:24:10.619Z,4.83
2023-01-15T23:26:38.161Z,4.78
2023-01-15T23:29:05.315Z,4.55
2023-01-15T23:31:32.285Z,4.63
2023-01-15T23:33:59.353Z,4.75
2023-01-15T23:36:26.482Z,4.84
2023-01-15T23:38:53.617Z,4.88
2023-01-15T23:41:41.238Z,4.62
2023-01-15T23:44:38.018Z,4.57
2023-01-15T23:47:06.391Z,4.59
2023-01-15T23:49:33.793Z,4.85
2023-01-15T23:52:00.789Z,4.75
2023-01-15T23:54:30.196Z,4.69
2023-01-15T23:57:01.607Z,4.53
2023-01-15T23:59:29.183Z,4.54
